»·PEaware :: N525SA KSJC-KSNA

N525SA :: KSJC-KSNA

FLIGHT INFORMATION

Flight Status: Arrived
Operator: Privately registered:
United States
More flights under this callsign
Pilot: Utku A. (15598)
Aircraft: SOCATA TBM-900
(TBM9)
More flights by this aircraft type
Origin: KSJC Mineta San Jose Intl
United States
Destination: KSNA John Wayne-Orange Co
United States
More flights between these airports :: More routes between these airports
Route: +SJC2 AVE + V137 GMN LHS V459 SLI +
File this flight plan on PilotEdge
Remarks:
Altitude:
(Current/Filed)
29,000ft
Speed:
(Current/Filed)
310kts
Departed: 31-Oct-18 04:23 PM
Arrived: 31-Oct-18 05:35 PM
Distance/Time
Traveled:
297nm/1:12
Distance/Time
To Go:
Arrived

Flight Plot

Page will automatically refresh every two minutes.

Flight plan parsing failed; only flown route is shown


Map Options




Map Legend


Flown Route
Filed Route
Departure Airport
Arrival Airport
Navaid (VOR, NDB)
Fix

Horizontal Profiles

Position Reports

Time Latitude Longitude Heading Altitude Ground
Speed
31-Oct-18 16:08 37.360292 -121.933679 49 49ft 0kts
31-Oct-18 16:09 37.360292 -121.933679 49 49ft 0kts
31-Oct-18 16:10 37.360292 -121.933679 49 49ft 0kts
31-Oct-18 16:11 37.360292 -121.933679 49 49ft 0kts
31-Oct-18 16:12 37.360292 -121.933679 49 49ft 0kts
31-Oct-18 16:13 37.360292 -121.933679 49 49ft 0kts
31-Oct-18 16:15 37.360292 -121.933679 49 49ft 0kts
31-Oct-18 16:16 37.360292 -121.933679 49 49ft 0kts
31-Oct-18 16:17 37.360292 -121.933679 49 49ft 0kts
31-Oct-18 16:18 37.360292 -121.933679 49 49ft 0kts
31-Oct-18 16:19 37.360558 -121.933457 18 49ft 6kts
31-Oct-18 16:20 37.360094 -121.931525 139 49ft 11kts
31-Oct-18 16:21 37.357911 -121.929066 139 53ft 9kts
31-Oct-18 16:22 37.355835 -121.926778 139 55ft 10kts
31-Oct-18 16:23 37.354325 -121.924235 59 57ft 8kts
31-Oct-18 16:24 37.353356 -121.921634 139 59ft 10kts
31-Oct-18 16:25 37.352802 -121.919138 357 60ft 9kts
31-Oct-18 16:26 37.367051 -121.934808 319 968ft 100kts
31-Oct-18 16:27 37.388811 -121.959538 318 2839ft 112kts
31-Oct-18 16:28 37.403084 -121.945144 119 4632ft 147kts
31-Oct-18 16:29 37.376469 -121.897648 121 5912ft 184kts
31-Oct-18 16:30 37.347079 -121.844841 120 7914ft 186kts
31-Oct-18 16:31 37.316309 -121.791531 119 9799ft 192kts
31-Oct-18 16:32 37.283660 -121.737495 130 11514ft 202kts
31-Oct-18 16:33 37.241754 -121.689643 131 13047ft 208kts
31-Oct-18 16:34 37.198301 -121.640145 130 14773ft 216kts
31-Oct-18 16:35 37.153485 -121.589104 130 16474ft 222kts
31-Oct-18 16:36 37.106609 -121.537084 131 17990ft 229kts
31-Oct-18 16:37 37.058497 -121.484413 131 19386ft 234kts
31-Oct-18 16:38 37.009039 -121.430364 131 20655ft 238kts
31-Oct-18 16:39 36.958751 -121.375494 130 21837ft 246kts
31-Oct-18 16:40 36.908644 -121.320955 131 23426ft 250kts
31-Oct-18 16:41 36.856832 -121.264634 131 24776ft 257kts
31-Oct-18 16:42 36.802339 -121.205516 131 25978ft 263kts
31-Oct-18 16:43 36.746231 -121.144783 130 27392ft 271kts
31-Oct-18 16:44 36.688734 -121.082655 130 28717ft 279kts
31-Oct-18 16:45 36.626446 -121.015418 131 29016ft 318kts
31-Oct-18 16:46 36.556701 -120.940444 132 29006ft 344kts
31-Oct-18 16:47 36.483078 -120.861482 132 29003ft 354kts
31-Oct-18 16:48 36.407951 -120.781113 132 29088ft 356kts
31-Oct-18 16:49 36.333456 -120.701596 132 29132ft 360kts
31-Oct-18 16:50 36.257516 -120.620771 132 29132ft 362kts
31-Oct-18 16:51 36.180928 -120.539469 132 29133ft 363kts
31-Oct-18 16:52 36.104539 -120.458594 133 29135ft 364kts
31-Oct-18 16:53 36.027557 -120.377307 133 29136ft 365kts
31-Oct-18 16:54 35.953641 -120.299465 133 29136ft 365kts
31-Oct-18 16:55 35.881779 -120.223975 133 29122ft 365kts
31-Oct-18 16:56 35.812150 -120.151009 133 29131ft 363kts
31-Oct-18 16:57 35.735358 -120.070733 133 29142ft 363kts
31-Oct-18 16:58 35.658399 -119.990496 133 29150ft 363kts
31-Oct-18 16:59 35.590026 -119.901933 125 29140ft 358kts
31-Oct-18 17:00 35.522964 -119.811878 125 29130ft 359kts
31-Oct-18 17:01 35.456123 -119.722370 125 29129ft 359kts
31-Oct-18 17:02 35.388818 -119.632459 125 29130ft 359kts
31-Oct-18 17:03 35.321377 -119.542607 125 29131ft 359kts
31-Oct-18 17:04 35.254019 -119.453107 125 29132ft 359kts
31-Oct-18 17:05 35.186226 -119.363266 125 29133ft 360kts
31-Oct-18 17:06 35.126049 -119.283742 125 29133ft 360kts
31-Oct-18 17:07 35.058054 -119.194125 125 29135ft 360kts
31-Oct-18 17:08 34.992802 -119.108351 125 27597ft 332kts
31-Oct-18 17:09 34.932521 -119.029273 125 26135ft 313kts
31-Oct-18 17:10 34.884587 -118.966499 126 24922ft 308kts
31-Oct-18 17:11 34.830122 -118.895358 127 23505ft 307kts
31-Oct-18 17:12 34.783290 -118.812468 110 21996ft 295kts
31-Oct-18 17:12 34.752252 -118.739386 111 20747ft 293kts
31-Oct-18 17:14 34.709014 -118.637881 112 18997ft 289kts
31-Oct-18 17:15 34.659615 -118.564030 150 17481ft 296kts
31-Oct-18 17:16 34.586737 -118.520498 152 15999ft 292kts
31-Oct-18 17:16 34.526721 -118.485344 152 15041ft 278kts
31-Oct-18 17:18 34.451543 -118.441420 152 15036ft 245kts
31-Oct-18 17:18 34.401481 -118.412212 152 14948ft 242kts
31-Oct-18 17:19 34.337397 -118.374871 152 13722ft 267kts
31-Oct-18 17:20 34.274446 -118.338262 153 12545ft 272kts
31-Oct-18 17:21 34.209082 -118.300293 154 11310ft 271kts
31-Oct-18 17:22 34.145201 -118.263314 154 11005ft 249kts
31-Oct-18 17:23 34.085151 -118.228577 154 11009ft 243kts
31-Oct-18 17:24 34.025225 -118.193946 154 10568ft 257kts
31-Oct-18 17:25 33.960970 -118.156884 154 9637ft 268kts
31-Oct-18 17:26 33.895349 -118.146457 191 8188ft 239kts
31-Oct-18 17:27 33.837114 -118.158295 191 6631ft 215kts
31-Oct-18 17:28 33.780482 -118.163576 147 5026ft 211kts
31-Oct-18 17:29 33.764758 -118.110689 101 4952ft 141kts
31-Oct-18 17:30 33.754696 -118.061216 101 4364ft 165kts
31-Oct-18 17:31 33.744266 -118.006834 101 3015ft 178kts
31-Oct-18 17:32 33.738009 -117.951364 93 2441ft 137kts
31-Oct-18 17:33 33.734157 -117.909005 97 2701ft 117kts
31-Oct-18 17:34 33.726794 -117.877924 116 1891ft 94kts
31-Oct-18 17:35 33.712724 -117.852014 133 868ft 89kts
31-Oct-18 17:36 33.690520 -117.859315 210 372ft 89kts
31-Oct-18 17:37 33.672929 -117.870587 208 59ft 38kts
31-Oct-18 17:38 33.667834 -117.872243 221 59ft 12kts
31-Oct-18 17:39 33.665616 -117.873288 194 59ft 5kts
31-Oct-18 17:40 33.665106 -117.873362 214 59ft 0kts
31-Oct-18 17:41 33.665106 -117.873362 214 59ft 0kts

Navigation Log

Ident Type
Flight plan parsing failed, navigation log unavailable